sensor_id;sensor_type;location;lat;lon;timestamp;P1;durP1;ratioP1;P2;durP2;ratioP2
44694;SDS011;32845;59.422;17.930;2023-08-24T00:03:54;5.03;;;1.38;;
44694;SDS011;32845;59.422;17.930;2023-08-24T00:08:24;7.47;;;1.50;;
44694;SDS011;32845;59.422;17.930;2023-08-24T00:12:55;2.38;;;1.30;;
44694;SDS011;32845;59.422;17.930;2023-08-24T00:17:26;2.65;;;1.27;;
44694;SDS011;32845;59.422;17.930;2023-08-24T00:21:56;3.72;;;1.33;;
44694;SDS011;32845;59.422;17.930;2023-08-24T00:26:27;6.43;;;1.33;;
44694;SDS011;32845;59.422;17.930;2023-08-24T00:30:57;10.00;;;1.63;;
44694;SDS011;32845;59.422;17.930;2023-08-24T00:35:28;6.00;;;1.52;;
44694;SDS011;32845;59.422;17.930;2023-08-24T00:40:03;3.88;;;1.23;;
44694;SDS011;32845;59.422;17.930;2023-08-24T00:44:38;8.60;;;1.40;;
44694;SDS011;32845;59.422;17.930;2023-08-24T00:49:09;5.45;;;1.50;;
44694;SDS011;32845;59.422;17.930;2023-08-24T00:53:39;5.95;;;1.52;;
44694;SDS011;32845;59.422;17.930;2023-08-24T00:58:11;6.68;;;1.80;;
44694;SDS011;32845;59.422;17.930;2023-08-24T01:02:43;3.92;;;1.40;;
44694;SDS011;32845;59.422;17.930;2023-08-24T01:07:14;3.55;;;1.42;;
44694;SDS011;32845;59.422;17.930;2023-08-24T01:11:51;3.00;;;1.55;;
44694;SDS011;32845;59.422;17.930;2023-08-24T01:16:34;4.07;;;1.65;;
44694;SDS011;32845;59.422;17.930;2023-08-24T01:21:10;3.33;;;1.58;;
44694;SDS011;32845;59.422;17.930;2023-08-24T01:25:50;4.38;;;2.25;;
44694;SDS011;32845;59.422;17.930;2023-08-24T01:30:23;2.60;;;1.60;;
44694;SDS011;32845;59.422;17.930;2023-08-24T01:34:54;5.55;;;1.48;;
44694;SDS011;32845;59.422;17.930;2023-08-24T01:44:36;2.53;;;1.17;;
44694;SDS011;32845;59.422;17.930;2023-08-24T01:49:11;6.00;;;1.50;;
44694;SDS011;32845;59.422;17.930;2023-08-24T01:53:43;4.95;;;1.17;;
44694;SDS011;32845;59.422;17.930;2023-08-24T01:58:14;3.42;;;1.58;;
44694;SDS011;32845;59.422;17.930;2023-08-24T02:02:45;5.25;;;1.80;;
44694;SDS011;32845;59.422;17.930;2023-08-24T02:07:17;2.20;;;1.60;;
44694;SDS011;32845;59.422;17.930;2023-08-24T02:11:47;4.18;;;1.48;;
44694;SDS011;32845;59.422;17.930;2023-08-24T02:16:18;9.55;;;1.40;;
44694;SDS011;32845;59.422;17.930;2023-08-24T02:20:49;3.17;;;1.35;;
44694;SDS011;32845;59.422;17.930;2023-08-24T02:25:19;6.88;;;1.40;;
44694;SDS011;32845;59.422;17.930;2023-08-24T02:29:50;3.03;;;1.55;;
44694;SDS011;32845;59.422;17.930;2023-08-24T02:34:21;5.70;;;1.80;;
44694;SDS011;32845;59.422;17.930;2023-08-24T02:38:51;3.05;;;1.30;;
44694;SDS011;32845;59.422;17.930;2023-08-24T02:43:22;4.00;;;1.30;;
44694;SDS011;32845;59.422;17.930;2023-08-24T02:47:53;5.68;;;1.63;;
44694;SDS011;32845;59.422;17.930;2023-08-24T02:52:23;7.03;;;1.42;;
44694;SDS011;32845;59.422;17.930;2023-08-24T02:56:54;4.65;;;1.45;;
44694;SDS011;32845;59.422;17.930;2023-08-24T03:01:25;6.78;;;1.60;;
44694;SDS011;32845;59.422;17.930;2023-08-24T03:05:57;6.30;;;1.25;;
44694;SDS011;32845;59.422;17.930;2023-08-24T03:10:36;6.88;;;1.60;;
44694;SDS011;32845;59.422;17.930;2023-08-24T03:15:06;8.05;;;1.80;;
44694;SDS011;32845;59.422;17.930;2023-08-24T03:19:37;2.35;;;1.45;;
44694;SDS011;32845;59.422;17.930;2023-08-24T03:24:08;3.08;;;1.65;;
44694;SDS011;32845;59.422;17.930;2023-08-24T03:28:39;7.80;;;1.98;;
44694;SDS011;32845;59.422;17.930;2023-08-24T03:33:09;2.60;;;1.55;;
44694;SDS011;32845;59.422;17.930;2023-08-24T03:37:40;6.97;;;1.45;;
44694;SDS011;32845;59.422;17.930;2023-08-24T03:42:11;2.33;;;1.67;;
44694;SDS011;32845;59.422;17.930;2023-08-24T03:46:41;3.63;;;1.20;;
44694;SDS011;32845;59.422;17.930;2023-08-24T03:51:12;4.82;;;1.77;;
44694;SDS011;32845;59.422;17.930;2023-08-24T03:55:46;2.78;;;1.50;;
44694;SDS011;32845;59.422;17.930;2023-08-24T04:00:18;6.85;;;1.50;;
44694;SDS011;32845;59.422;17.930;2023-08-24T04:04:50;3.65;;;1.60;;
44694;SDS011;32845;59.422;17.930;2023-08-24T04:09:21;4.53;;;1.52;;
44694;SDS011;32845;59.422;17.930;2023-08-24T04:13:51;10.00;;;1.73;;
44694;SDS011;32845;59.422;17.930;2023-08-24T04:18:22;2.92;;;1.40;;
44694;SDS011;32845;59.422;17.930;2023-08-24T04:22:54;4.55;;;1.55;;
44694;SDS011;32845;59.422;17.930;2023-08-24T04:27:25;9.60;;;1.48;;
44694;SDS011;32845;59.422;17.930;2023-08-24T04:31:56;5.63;;;1.73;;
44694;SDS011;32845;59.422;17.930;2023-08-24T04:36:26;9.77;;;1.33;;
44694;SDS011;32845;59.422;17.930;2023-08-24T04:40:57;7.50;;;1.67;;
44694;SDS011;32845;59.422;17.930;2023-08-24T04:45:28;6.07;;;1.80;;
44694;SDS011;32845;59.422;17.930;2023-08-24T04:49:58;10.35;;;1.65;;
44694;SDS011;32845;59.422;17.930;2023-08-24T04:54:29;8.05;;;1.67;;
44694;SDS011;32845;59.422;17.930;2023-08-24T04:58:59;5.97;;;1.80;;
44694;SDS011;32845;59.422;17.930;2023-08-24T05:03:31;6.75;;;1.88;;
44694;SDS011;32845;59.422;17.930;2023-08-24T05:08:02;8.13;;;1.65;;
44694;SDS011;32845;59.422;17.930;2023-08-24T05:12:36;3.42;;;1.65;;
44694;SDS011;32845;59.422;17.930;2023-08-24T05:17:06;11.68;;;1.60;;
44694;SDS011;32845;59.422;17.930;2023-08-24T05:21:37;10.40;;;1.88;;
44694;SDS011;32845;59.422;17.930;2023-08-24T05:26:07;7.72;;;1.80;;
44694;SDS011;32845;59.422;17.930;2023-08-24T05:30:38;7.13;;;1.77;;
44694;SDS011;32845;59.422;17.930;2023-08-24T05:35:09;8.43;;;1.70;;
44694;SDS011;32845;59.422;17.930;2023-08-24T05:39:39;13.50;;;1.80;;
44694;SDS011;32845;59.422;17.930;2023-08-24T05:44:10;9.40;;;2.03;;
44694;SDS011;32845;59.422;17.930;2023-08-24T05:48:40;10.00;;;2.00;;
44694;SDS011;32845;59.422;17.930;2023-08-24T05:53:11;8.77;;;2.15;;
44694;SDS011;32845;59.422;17.930;2023-08-24T05:57:42;6.07;;;1.63;;
44694;SDS011;32845;59.422;17.930;2023-08-24T06:02:17;7.47;;;2.35;;
44694;SDS011;32845;59.422;17.930;2023-08-24T06:06:48;7.45;;;2.00;;
44694;SDS011;32845;59.422;17.930;2023-08-24T06:11:18;11.60;;;2.13;;
44694;SDS011;32845;59.422;17.930;2023-08-24T06:15:49;7.72;;;1.88;;
44694;SDS011;32845;59.422;17.930;2023-08-24T06:20:20;11.70;;;2.28;;
44694;SDS011;32845;59.422;17.930;2023-08-24T06:24:50;14.48;;;2.40;;
44694;SDS011;32845;59.422;17.930;2023-08-24T06:29:23;12.93;;;1.83;;
44694;SDS011;32845;59.422;17.930;2023-08-24T06:33:54;6.20;;;1.85;;
44694;SDS011;32845;59.422;17.930;2023-08-24T06:38:25;8.35;;;1.80;;
44694;SDS011;32845;59.422;17.930;2023-08-24T06:42:56;6.22;;;1.70;;
44694;SDS011;32845;59.422;17.930;2023-08-24T06:47:27;7.43;;;1.95;;
44694;SDS011;32845;59.422;17.930;2023-08-24T06:51:57;3.67;;;1.50;;
44694;SDS011;32845;59.422;17.930;2023-08-24T06:56:28;13.27;;;2.15;;
44694;SDS011;32845;59.422;17.930;2023-08-24T07:00:59;12.65;;;2.15;;
44694;SDS011;32845;59.422;17.930;2023-08-24T07:05:29;9.43;;;1.85;;
44694;SDS011;32845;59.422;17.930;2023-08-24T07:10:01;6.57;;;1.58;;
44694;SDS011;32845;59.422;17.930;2023-08-24T07:14:32;9.10;;;1.80;;
44694;SDS011;32845;59.422;17.930;2023-08-24T07:19:06;9.82;;;1.60;;
44694;SDS011;32845;59.422;17.930;2023-08-24T07:23:36;5.43;;;1.75;;
44694;SDS011;32845;59.422;17.930;2023-08-24T07:28:07;10.35;;;1.83;;
44694;SDS011;32845;59.422;17.930;2023-08-24T07:32:38;4.97;;;1.90;;
44694;SDS011;32845;59.422;17.930;2023-08-24T07:37:09;9.25;;;1.88;;
44694;SDS011;32845;59.422;17.930;2023-08-24T07:41:39;7.63;;;2.00;;
44694;SDS011;32845;59.422;17.930;2023-08-24T07:46:10;8.10;;;1.70;;
44694;SDS011;32845;59.422;17.930;2023-08-24T07:50:41;11.73;;;1.88;;
44694;SDS011;32845;59.422;17.930;2023-08-24T07:55:11;10.50;;;1.63;;
44694;SDS011;32845;59.422;17.930;2023-08-24T07:59:42;8.20;;;1.52;;
44694;SDS011;32845;59.422;17.930;2023-08-24T08:04:13;10.98;;;2.38;;
44694;SDS011;32845;59.422;17.930;2023-08-24T08:08:43;5.85;;;1.77;;
44694;SDS011;32845;59.422;17.930;2023-08-24T08:13:20;13.85;;;1.90;;
44694;SDS011;32845;59.422;17.930;2023-08-24T08:17:51;8.25;;;2.22;;
44694;SDS011;32845;59.422;17.930;2023-08-24T08:22:22;10.13;;;1.80;;
44694;SDS011;32845;59.422;17.930;2023-08-24T08:26:53;13.65;;;2.05;;
44694;SDS011;32845;59.422;17.930;2023-08-24T08:31:24;16.02;;;2.00;;
44694;SDS011;32845;59.422;17.930;2023-08-24T08:35:55;10.77;;;1.65;;
44694;SDS011;32845;59.422;17.930;2023-08-24T08:40:26;9.43;;;1.75;;
44694;SDS011;32845;59.422;17.930;2023-08-24T08:45:00;5.78;;;1.45;;
44694;SDS011;32845;59.422;17.930;2023-08-24T08:49:34;10.55;;;1.95;;
44694;SDS011;32845;59.422;17.930;2023-08-24T08:54:07;5.85;;;1.50;;
44694;SDS011;32845;59.422;17.930;2023-08-24T08:58:37;6.65;;;1.70;;
44694;SDS011;32845;59.422;17.930;2023-08-24T09:03:14;10.38;;;1.65;;
44694;SDS011;32845;59.422;17.930;2023-08-24T09:07:47;4.60;;;1.50;;
44694;SDS011;32845;59.422;17.930;2023-08-24T09:12:19;12.55;;;1.45;;
44694;SDS011;32845;59.422;17.930;2023-08-24T09:16:50;7.55;;;1.88;;
44694;SDS011;32845;59.422;17.930;2023-08-24T09:21:20;4.00;;;1.40;;
44694;SDS011;32845;59.422;17.930;2023-08-24T09:25:53;7.20;;;1.65;;
44694;SDS011;32845;59.422;17.930;2023-08-24T09:30:31;9.23;;;1.90;;
44694;SDS011;32845;59.422;17.930;2023-08-24T09:35:03;7.93;;;1.83;;
44694;SDS011;32845;59.422;17.930;2023-08-24T09:39:37;7.05;;;2.30;;
44694;SDS011;32845;59.422;17.930;2023-08-24T09:44:08;8.05;;;2.10;;
44694;SDS011;32845;59.422;17.930;2023-08-24T09:48:38;8.73;;;1.80;;
44694;SDS011;32845;59.422;17.930;2023-08-24T09:53:10;9.20;;;1.60;;
44694;SDS011;32845;59.422;17.930;2023-08-24T09:57:53;5.65;;;1.42;;
44694;SDS011;32845;59.422;17.930;2023-08-24T10:02:25;4.82;;;1.60;;
44694;SDS011;32845;59.422;17.930;2023-08-24T10:07:03;9.52;;;1.90;;
44694;SDS011;32845;59.422;17.930;2023-08-24T10:11:42;9.27;;;1.65;;
44694;SDS011;32845;59.422;17.930;2023-08-24T10:16:20;4.97;;;1.67;;
44694;SDS011;32845;59.422;17.930;2023-08-24T10:20:53;7.43;;;1.60;;
44694;SDS011;32845;59.422;17.930;2023-08-24T10:25:25;7.25;;;1.55;;
44694;SDS011;32845;59.422;17.930;2023-08-24T10:29:56;12.32;;;1.75;;
44694;SDS011;32845;59.422;17.930;2023-08-24T10:34:29;14.73;;;1.60;;
44694;SDS011;32845;59.422;17.930;2023-08-24T10:39:03;10.45;;;1.58;;
44694;SDS011;32845;59.422;17.930;2023-08-24T10:43:37;9.05;;;1.70;;
44694;SDS011;32845;59.422;17.930;2023-08-24T10:48:07;4.60;;;1.25;;
44694;SDS011;32845;59.422;17.930;2023-08-24T10:52:44;4.55;;;1.15;;
44694;SDS011;32845;59.422;17.930;2023-08-24T10:57:19;9.40;;;1.30;;
44694;SDS011;32845;59.422;17.930;2023-08-24T11:06:28;8.10;;;1.10;;
44694;SDS011;32845;59.422;17.930;2023-08-24T11:10:59;5.25;;;1.42;;
44694;SDS011;32845;59.422;17.930;2023-08-24T11:15:34;3.35;;;1.52;;
44694;SDS011;32845;59.422;17.930;2023-08-24T11:20:14;6.53;;;1.30;;
44694;SDS011;32845;59.422;17.930;2023-08-24T11:24:45;5.22;;;1.30;;
44694;SDS011;32845;59.422;17.930;2023-08-24T11:29:15;7.40;;;1.27;;
44694;SDS011;32845;59.422;17.930;2023-08-24T11:33:48;7.68;;;1.25;;
44694;SDS011;32845;59.422;17.930;2023-08-24T11:38:40;5.07;;;1.13;;
44694;SDS011;32845;59.422;17.930;2023-08-24T11:43:12;2.60;;;1.08;;
44694;SDS011;32845;59.422;17.930;2023-08-24T11:47:42;7.30;;;1.25;;
44694;SDS011;32845;59.422;17.930;2023-08-24T11:52:13;3.20;;;0.95;;
44694;SDS011;32845;59.422;17.930;2023-08-24T11:56:45;9.50;;;1.23;;
44694;SDS011;32845;59.422;17.930;2023-08-24T12:01:19;7.88;;;1.30;;
44694;SDS011;32845;59.422;17.930;2023-08-24T12:05:50;3.90;;;1.15;;
44694;SDS011;32845;59.422;17.930;2023-08-24T12:10:21;6.53;;;1.17;;
44694;SDS011;32845;59.422;17.930;2023-08-24T12:14:52;3.95;;;1.10;;
44694;SDS011;32845;59.422;17.930;2023-08-24T12:19:22;6.78;;;0.95;;
44694;SDS011;32845;59.422;17.930;2023-08-24T12:23:56;4.72;;;1.00;;
44694;SDS011;32845;59.422;17.930;2023-08-24T12:28:38;4.55;;;1.10;;
44694;SDS011;32845;59.422;17.930;2023-08-24T12:38:15;3.03;;;1.15;;
44694;SDS011;32845;59.422;17.930;2023-08-24T12:42:46;5.50;;;0.95;;
44694;SDS011;32845;59.422;17.930;2023-08-24T12:47:16;8.55;;;1.00;;
44694;SDS011;32845;59.422;17.930;2023-08-24T12:51:47;7.72;;;1.10;;
44694;SDS011;32845;59.422;17.930;2023-08-24T12:56:17;5.00;;;0.95;;
44694;SDS011;32845;59.422;17.930;2023-08-24T13:00:48;5.80;;;1.58;;
44694;SDS011;32845;59.422;17.930;2023-08-24T13:05:19;5.70;;;1.00;;
44694;SDS011;32845;59.422;17.930;2023-08-24T13:09:49;5.70;;;1.15;;
44694;SDS011;32845;59.422;17.930;2023-08-24T13:14:20;3.22;;;1.10;;
44694;SDS011;32845;59.422;17.930;2023-08-24T13:18:51;7.18;;;1.05;;
44694;SDS011;32845;59.422;17.930;2023-08-24T13:23:22;6.03;;;1.15;;
44694;SDS011;32845;59.422;17.930;2023-08-24T13:27:52;4.88;;;0.90;;
44694;SDS011;32845;59.422;17.930;2023-08-24T13:32:23;2.00;;;1.05;;
44694;SDS011;32845;59.422;17.930;2023-08-24T13:36:54;3.58;;;0.90;;
44694;SDS011;32845;59.422;17.930;2023-08-24T13:41:24;2.70;;;0.95;;
44694;SDS011;32845;59.422;17.930;2023-08-24T13:45:55;5.78;;;1.15;;
44694;SDS011;32845;59.422;17.930;2023-08-24T13:50:25;3.08;;;0.90;;
44694;SDS011;32845;59.422;17.930;2023-08-24T13:54:56;3.50;;;1.00;;
44694;SDS011;32845;59.422;17.930;2023-08-24T13:59:26;4.32;;;1.20;;
44694;SDS011;32845;59.422;17.930;2023-08-24T14:03:57;7.32;;;1.20;;
44694;SDS011;32845;59.422;17.930;2023-08-24T14:08:28;4.03;;;1.23;;
44694;SDS011;32845;59.422;17.930;2023-08-24T14:12:58;6.20;;;1.15;;
44694;SDS011;32845;59.422;17.930;2023-08-24T14:17:29;3.40;;;0.88;;
44694;SDS011;32845;59.422;17.930;2023-08-24T14:22:00;6.30;;;1.17;;
44694;SDS011;32845;59.422;17.930;2023-08-24T14:26:31;3.35;;;0.93;;
44694;SDS011;32845;59.422;17.930;2023-08-24T14:31:01;3.25;;;1.00;;
44694;SDS011;32845;59.422;17.930;2023-08-24T14:35:35;5.43;;;1.50;;
44694;SDS011;32845;59.422;17.930;2023-08-24T14:40:06;6.57;;;1.80;;
44694;SDS011;32845;59.422;17.930;2023-08-24T14:44:37;4.35;;;1.08;;
44694;SDS011;32845;59.422;17.930;2023-08-24T14:49:07;6.00;;;1.13;;
44694;SDS011;32845;59.422;17.930;2023-08-24T14:53:38;6.93;;;0.93;;
44694;SDS011;32845;59.422;17.930;2023-08-24T14:58:09;5.68;;;1.30;;
44694;SDS011;32845;59.422;17.930;2023-08-24T15:02:40;7.15;;;1.08;;
44694;SDS011;32845;59.422;17.930;2023-08-24T15:07:11;5.25;;;1.13;;
44694;SDS011;32845;59.422;17.930;2023-08-24T15:11:42;5.78;;;0.88;;
44694;SDS011;32845;59.422;17.930;2023-08-24T15:16:12;3.17;;;1.10;;
44694;SDS011;32845;59.422;17.930;2023-08-24T15:20:43;0.80;;;0.50;;
44694;SDS011;32845;59.422;17.930;2023-08-24T15:25:14;1.45;;;0.70;;
44694;SDS011;32845;59.422;17.930;2023-08-24T15:29:44;3.05;;;0.85;;
44694;SDS011;32845;59.422;17.930;2023-08-24T15:34:15;4.03;;;0.50;;
44694;SDS011;32845;59.422;17.930;2023-08-24T15:38:46;4.65;;;0.70;;
44694;SDS011;32845;59.422;17.930;2023-08-24T15:43:16;2.38;;;0.50;;
44694;SDS011;32845;59.422;17.930;2023-08-24T15:47:47;1.55;;;0.60;;
44694;SDS011;32845;59.422;17.930;2023-08-24T15:52:17;6.05;;;0.90;;
44694;SDS011;32845;59.422;17.930;2023-08-24T15:56:48;2.22;;;0.90;;
44694;SDS011;32845;59.422;17.930;2023-08-24T16:01:18;1.05;;;0.57;;
44694;SDS011;32845;59.422;17.930;2023-08-24T16:05:49;1.95;;;0.82;;
44694;SDS011;32845;59.422;17.930;2023-08-24T16:10:20;1.98;;;0.80;;
44694;SDS011;32845;59.422;17.930;2023-08-24T16:14:50;4.82;;;1.05;;
44694;SDS011;32845;59.422;17.930;2023-08-24T16:19:21;1.85;;;0.70;;
44694;SDS011;32845;59.422;17.930;2023-08-24T16:23:52;3.65;;;1.13;;
44694;SDS011;32845;59.422;17.930;2023-08-24T16:28:24;3.67;;;1.13;;
44694;SDS011;32845;59.422;17.930;2023-08-24T16:32:55;4.53;;;1.10;;
44694;SDS011;32845;59.422;17.930;2023-08-24T16:37:25;2.67;;;0.75;;
44694;SDS011;32845;59.422;17.930;2023-08-24T16:41:56;1.65;;;0.82;;
44694;SDS011;32845;59.422;17.930;2023-08-24T16:46:27;0.57;;;0.57;;
44694;SDS011;32845;59.422;17.930;2023-08-24T16:50:58;2.10;;;0.85;;
44694;SDS011;32845;59.422;17.930;2023-08-24T16:55:28;3.80;;;0.73;;
44694;SDS011;32845;59.422;17.930;2023-08-24T16:59:59;7.20;;;0.90;;
44694;SDS011;32845;59.422;17.930;2023-08-24T17:04:29;5.80;;;1.50;;
44694;SDS011;32845;59.422;17.930;2023-08-24T17:09:00;3.20;;;1.17;;
44694;SDS011;32845;59.422;17.930;2023-08-24T17:13:31;6.03;;;0.88;;
44694;SDS011;32845;59.422;17.930;2023-08-24T17:18:01;3.03;;;1.02;;
44694;SDS011;32845;59.422;17.930;2023-08-24T17:22:32;5.75;;;1.05;;
44694;SDS011;32845;59.422;17.930;2023-08-24T17:27:03;3.88;;;1.10;;
44694;SDS011;32845;59.422;17.930;2023-08-24T17:31:34;3.50;;;1.05;;
44694;SDS011;32845;59.422;17.930;2023-08-24T17:36:04;2.35;;;1.30;;
44694;SDS011;32845;59.422;17.930;2023-08-24T17:40:35;3.55;;;0.95;;
44694;SDS011;32845;59.422;17.930;2023-08-24T17:45:06;2.70;;;0.73;;
44694;SDS011;32845;59.422;17.930;2023-08-24T17:49:38;2.55;;;1.00;;
44694;SDS011;32845;59.422;17.930;2023-08-24T17:54:09;2.42;;;1.05;;
44694;SDS011;32845;59.422;17.930;2023-08-24T17:58:39;5.82;;;1.15;;
44694;SDS011;32845;59.422;17.930;2023-08-24T18:03:10;7.18;;;1.20;;
44694;SDS011;32845;59.422;17.930;2023-08-24T18:07:40;6.80;;;1.02;;
44694;SDS011;32845;59.422;17.930;2023-08-24T18:12:11;11.15;;;1.33;;
44694;SDS011;32845;59.422;17.930;2023-08-24T18:16:42;2.28;;;0.80;;
44694;SDS011;32845;59.422;17.930;2023-08-24T18:21:12;9.48;;;1.33;;
44694;SDS011;32845;59.422;17.930;2023-08-24T18:25:43;4.13;;;0.80;;
44694;SDS011;32845;59.422;17.930;2023-08-24T18:30:13;5.18;;;0.80;;
44694;SDS011;32845;59.422;17.930;2023-08-24T18:34:44;2.17;;;0.63;;
44694;SDS011;32845;59.422;17.930;2023-08-24T18:39:15;6.15;;;1.02;;
44694;SDS011;32845;59.422;17.930;2023-08-24T18:43:45;3.13;;;0.90;;
44694;SDS011;32845;59.422;17.930;2023-08-24T18:48:16;2.28;;;0.77;;
44694;SDS011;32845;59.422;17.930;2023-08-24T18:52:46;1.52;;;0.70;;
44694;SDS011;32845;59.422;17.930;2023-08-24T18:57:17;5.47;;;0.90;;
44694;SDS011;32845;59.422;17.930;2023-08-24T19:01:48;2.72;;;0.85;;
44694;SDS011;32845;59.422;17.930;2023-08-24T19:06:18;3.05;;;0.80;;
44694;SDS011;32845;59.422;17.930;2023-08-24T19:10:52;2.92;;;0.77;;
44694;SDS011;32845;59.422;17.930;2023-08-24T19:15:23;3.80;;;1.10;;
44694;SDS011;32845;59.422;17.930;2023-08-24T19:19:53;1.27;;;0.75;;
44694;SDS011;32845;59.422;17.930;2023-08-24T19:24:24;1.70;;;0.82;;
44694;SDS011;32845;59.422;17.930;2023-08-24T19:28:55;3.08;;;1.27;;
44694;SDS011;32845;59.422;17.930;2023-08-24T19:33:26;1.95;;;0.73;;
44694;SDS011;32845;59.422;17.930;2023-08-24T19:37:57;5.45;;;1.50;;
44694;SDS011;32845;59.422;17.930;2023-08-24T19:42:28;9.30;;;1.05;;
44694;SDS011;32845;59.422;17.930;2023-08-24T19:47:01;3.22;;;0.65;;
44694;SDS011;32845;59.422;17.930;2023-08-24T19:51:31;4.25;;;0.95;;
44694;SDS011;32845;59.422;17.930;2023-08-24T19:56:02;5.25;;;1.00;;
44694;SDS011;32845;59.422;17.930;2023-08-24T20:00:33;1.40;;;0.95;;
44694;SDS011;32845;59.422;17.930;2023-08-24T20:05:04;4.95;;;1.13;;
44694;SDS011;32845;59.422;17.930;2023-08-24T20:09:34;9.40;;;1.30;;
44694;SDS011;32845;59.422;17.930;2023-08-24T20:14:05;3.00;;;1.05;;
44694;SDS011;32845;59.422;17.930;2023-08-24T20:18:36;2.53;;;1.17;;
44694;SDS011;32845;59.422;17.930;2023-08-24T20:23:07;1.40;;;0.93;;
44694;SDS011;32845;59.422;17.930;2023-08-24T20:27:38;3.03;;;1.58;;
44694;SDS011;32845;59.422;17.930;2023-08-24T20:32:09;6.25;;;1.20;;
44694;SDS011;32845;59.422;17.930;2023-08-24T20:36:39;10.10;;;1.90;;
44694;SDS011;32845;59.422;17.930;2023-08-24T20:41:10;6.50;;;1.88;;
44694;SDS011;32845;59.422;17.930;2023-08-24T20:45:41;4.60;;;1.35;;
44694;SDS011;32845;59.422;17.930;2023-08-24T20:50:11;3.70;;;1.17;;
44694;SDS011;32845;59.422;17.930;2023-08-24T20:54:43;4.70;;;1.08;;
44694;SDS011;32845;59.422;17.930;2023-08-24T20:59:14;6.72;;;1.80;;
44694;SDS011;32845;59.422;17.930;2023-08-24T21:03:45;5.38;;;1.63;;
44694;SDS011;32845;59.422;17.930;2023-08-24T21:08:16;3.05;;;1.60;;
44694;SDS011;32845;59.422;17.930;2023-08-24T21:12:46;4.00;;;1.33;;
44694;SDS011;32845;59.422;17.930;2023-08-24T21:17:17;4.18;;;1.70;;
44694;SDS011;32845;59.422;17.930;2023-08-24T21:21:48;8.48;;;1.60;;
44694;SDS011;32845;59.422;17.930;2023-08-24T21:26:19;2.97;;;1.50;;
44694;SDS011;32845;59.422;17.930;2023-08-24T21:30:49;4.40;;;1.50;;
44694;SDS011;32845;59.422;17.930;2023-08-24T21:35:20;4.38;;;1.38;;
44694;SDS011;32845;59.422;17.930;2023-08-24T21:39:50;8.10;;;1.90;;
44694;SDS011;32845;59.422;17.930;2023-08-24T21:44:21;3.17;;;1.38;;
44694;SDS011;32845;59.422;17.930;2023-08-24T21:48:51;4.65;;;1.73;;
44694;SDS011;32845;59.422;17.930;2023-08-24T21:53:22;7.05;;;1.58;;
44694;SDS011;32845;59.422;17.930;2023-08-24T21:57:52;4.25;;;1.58;;
44694;SDS011;32845;59.422;17.930;2023-08-24T22:02:25;6.50;;;1.73;;
44694;SDS011;32845;59.422;17.930;2023-08-24T22:06:56;7.97;;;1.60;;
44694;SDS011;32845;59.422;17.930;2023-08-24T22:11:26;6.90;;;1.55;;
44694;SDS011;32845;59.422;17.930;2023-08-24T22:15:57;7.60;;;2.00;;
44694;SDS011;32845;59.422;17.930;2023-08-24T22:20:29;11.32;;;2.47;;
44694;SDS011;32845;59.422;17.930;2023-08-24T22:25:00;8.18;;;2.70;;
44694;SDS011;32845;59.422;17.930;2023-08-24T22:29:31;6.30;;;2.13;;
44694;SDS011;32845;59.422;17.930;2023-08-24T22:34:02;4.88;;;2.00;;
44694;SDS011;32845;59.422;17.930;2023-08-24T22:38:33;8.13;;;2.35;;
44694;SDS011;32845;59.422;17.930;2023-08-24T22:43:03;9.68;;;2.35;;
44694;SDS011;32845;59.422;17.930;2023-08-24T22:47:34;6.60;;;2.40;;
44694;SDS011;32845;59.422;17.930;2023-08-24T22:52:05;6.68;;;2.00;;
44694;SDS011;32845;59.422;17.930;2023-08-24T22:56:35;10.57;;;2.22;;
44694;SDS011;32845;59.422;17.930;2023-08-24T23:01:15;4.30;;;2.22;;
44694;SDS011;32845;59.422;17.930;2023-08-24T23:05:47;7.75;;;2.30;;
44694;SDS011;32845;59.422;17.930;2023-08-24T23:10:17;4.30;;;1.90;;
44694;SDS011;32845;59.422;17.930;2023-08-24T23:14:48;5.05;;;2.08;;
44694;SDS011;32845;59.422;17.930;2023-08-24T23:19:19;5.18;;;1.88;;
44694;SDS011;32845;59.422;17.930;2023-08-24T23:23:49;3.25;;;1.77;;
44694;SDS011;32845;59.422;17.930;2023-08-24T23:28:20;4.53;;;1.67;;
44694;SDS011;32845;59.422;17.930;2023-08-24T23:32:51;4.90;;;2.15;;
44694;SDS011;32845;59.422;17.930;2023-08-24T23:37:21;7.90;;;1.90;;
44694;SDS011;32845;59.422;17.930;2023-08-24T23:41:52;4.55;;;1.95;;
44694;SDS011;32845;59.422;17.930;2023-08-24T23:46:22;4.88;;;1.75;;
44694;SDS011;32845;59.422;17.930;2023-08-24T23:50:53;10.82;;;1.92;;
44694;SDS011;32845;59.422;17.930;2023-08-24T23:55:24;5.82;;;1.90;;
44694;SDS011;32845;59.422;17.930;2023-08-24T23:59:54;9.02;;;1.73;;
